createdAt,value
2022-10-19T00:00:51.600Z,72.51
2022-10-19T00:03:40.254Z,72.37
2022-10-19T00:06:30.344Z,72.15
2022-10-19T00:09:19.455Z,72.89
2022-10-19T00:12:05.892Z,72.54
2022-10-19T00:14:52.513Z,73.53
2022-10-19T00:17:38.800Z,73.43
2022-10-19T00:20:25.376Z,74.31
2022-10-19T00:23:15.389Z,75.79
2022-10-19T00:26:02.664Z,79.21
2022-10-19T00:28:49.444Z,82.50
2022-10-19T00:31:36.263Z,81.02
2022-10-19T00:34:25.286Z,83.67
2022-10-19T00:37:12.602Z,80.54
2022-10-19T00:39:59.326Z,78.38
2022-10-19T00:42:45.770Z,79.13
2022-10-19T00:45:32.006Z,77.83
2022-10-19T00:48:28.317Z,79.88
2022-10-19T00:51:14.999Z,80.02
2022-10-19T00:54:04.257Z,78.68
2022-10-19T00:56:52.567Z,78.59
2022-10-19T00:59:40.371Z,80.70
2022-10-19T01:02:26.487Z,80.40
2022-10-19T01:05:14.630Z,79.69
2022-10-19T01:08:01.456Z,83.60
2022-10-19T01:10:52.769Z,82.45
2022-10-19T01:14:03.151Z,82.22
2022-10-19T01:17:11.744Z,80.76
2022-10-19T01:20:21.938Z,80.06
2022-10-19T01:23:14.308Z,82.71
2022-10-19T01:26:12.519Z,85.88
2022-10-19T01:29:33.554Z,86.07
2022-10-19T01:32:22.878Z,84.17
2022-10-19T01:35:37.769Z,86.70
2022-10-19T01:38:35.525Z,82.78
2022-10-19T01:41:44.506Z,81.59
2022-10-19T01:44:49.991Z,78.74
2022-10-19T01:47:48.264Z,77.03
2022-10-19T01:50:41.651Z,76.62
2022-10-19T01:53:32.590Z,76.00
2022-10-19T01:56:24.710Z,80.17
2022-10-19T01:59:12.629Z,79.67
2022-10-19T02:01:59.033Z,80.56
2022-10-19T02:04:47.257Z,79.20
2022-10-19T02:07:33.956Z,81.19
2022-10-19T02:10:20.725Z,79.32
2022-10-19T02:13:08.286Z,87.65
2022-10-19T02:15:56.859Z,92.97
2022-10-19T02:18:47.489Z,95.10
2022-10-19T02:21:34.925Z,95.37
2022-10-19T02:24:20.792Z,91.92
2022-10-19T02:27:08.347Z,97.43
2022-10-19T02:29:56.222Z,96.88
2022-10-19T02:32:43.660Z,95.05
2022-10-19T02:35:31.393Z,92.74
2022-10-19T02:38:22.514Z,95.50
2022-10-19T02:41:16.041Z,97.34
2022-10-19T02:44:16.429Z,96.29
2022-10-19T02:47:22.647Z,93.82
2022-10-19T02:50:11.079Z,93.29
2022-10-19T02:53:02.626Z,93.44
2022-10-19T02:55:50.632Z,92.48
2022-10-19T02:58:37.203Z,89.28
2022-10-19T03:01:25.400Z,94.76
2022-10-19T03:04:12.105Z,95.86
2022-10-19T03:06:58.435Z,96.94
2022-10-19T03:09:45.283Z,96.32
2022-10-19T03:12:31.931Z,96.45
2022-10-19T03:15:19.602Z,97.47
2022-10-19T03:18:07.813Z,96.49
2022-10-19T03:21:10.034Z,95.86
2022-10-19T03:23:56.710Z,95.01
2022-10-19T03:26:43.190Z,93.99
2022-10-19T03:29:32.975Z,93.51
2022-10-19T03:32:19.135Z,92.09
2022-10-19T03:35:06.587Z,91.48
2022-10-19T03:37:53.947Z,92.56
2022-10-19T03:40:42.867Z,93.91
2022-10-19T03:43:31.742Z,91.92
2022-10-19T03:46:20.734Z,91.19
2022-10-19T03:49:11.393Z,89.25
2022-10-19T03:51:59.988Z,92.46
2022-10-19T03:54:50.699Z,92.45
2022-10-19T03:57:37.697Z,91.17
2022-10-19T04:00:26.100Z,92.46
2022-10-19T04:03:24.655Z,92.04
2022-10-19T04:06:15.850Z,88.46
2022-10-19T04:09:06.564Z,90.45
2022-10-19T04:11:55.023Z,89.94
2022-10-19T04:14:56.209Z,89.52
2022-10-19T04:17:45.657Z,91.44
2022-10-19T04:20:45.607Z,91.61
2022-10-19T04:23:36.584Z,88.13
2022-10-19T04:26:27.604Z,89.96
2022-10-19T04:32:09.612Z,87.09
2022-10-19T04:34:56.227Z,89.91
2022-10-19T04:37:45.677Z,93.92
2022-10-19T04:40:37.821Z,93.06
2022-10-19T04:43:25.548Z,91.91
2022-10-19T04:46:16.410Z,93.15
2022-10-19T04:51:59.936Z,90.96
2022-10-19T04:54:46.725Z,89.65
2022-10-19T04:57:37.259Z,93.53
2022-10-19T05:00:25.736Z,97.84
2022-10-19T05:03:21.094Z,99.68
2022-10-19T05:06:11.462Z,100.00
2022-10-19T05:09:04.587Z,100.00
2022-10-19T05:11:51.334Z,100.00
2022-10-19T05:14:41.928Z,100.00
2022-10-19T05:17:33.110Z,100.00
2022-10-19T05:20:23.746Z,100.00
2022-10-19T05:23:12.547Z,100.00
2022-10-19T05:26:08.587Z,100.00
2022-10-19T05:28:58.593Z,100.00
2022-10-19T05:31:45.588Z,100.00
2022-10-19T05:34:32.689Z,100.00
2022-10-19T05:37:22.019Z,100.00
2022-10-19T05:40:10.668Z,100.00
2022-10-19T05:42:57.490Z,100.00
2022-10-19T05:45:44.977Z,100.00
2022-10-19T05:48:35.126Z,100.00
2022-10-19T05:51:24.590Z,100.00
2022-10-19T05:54:21.755Z,100.00
2022-10-19T05:57:11.934Z,100.00
2022-10-19T05:59:59.578Z,100.00
2022-10-19T06:02:58.975Z,100.00
2022-10-19T06:05:46.859Z,100.00
2022-10-19T06:08:36.988Z,100.00
2022-10-19T06:11:27.849Z,100.00
2022-10-19T06:14:16.804Z,100.00
2022-10-19T06:17:04.619Z,100.00
2022-10-19T06:19:52.099Z,100.00
2022-10-19T06:22:38.503Z,100.00
2022-10-19T06:25:32.722Z,100.00
2022-10-19T06:28:31.489Z,100.00
2022-10-19T06:31:18.689Z,100.00
2022-10-19T06:34:05.884Z,100.00
2022-10-19T06:36:56.681Z,100.00
2022-10-19T06:39:43.104Z,100.00
2022-10-19T06:42:29.583Z,100.00
2022-10-19T06:45:24.590Z,100.00
2022-10-19T06:48:15.394Z,100.00
2022-10-19T06:51:06.396Z,100.00
2022-10-19T06:53:57.189Z,100.00
2022-10-19T06:56:45.838Z,100.00
2022-10-19T06:59:33.322Z,100.00
2022-10-19T07:02:21.603Z,100.00
2022-10-19T07:05:09.746Z,100.00
2022-10-19T07:07:57.898Z,100.00
2022-10-19T07:10:53.515Z,100.00
2022-10-19T07:13:40.232Z,100.00
2022-10-19T07:16:26.913Z,100.00
2022-10-19T07:19:14.488Z,100.00
2022-10-19T07:22:01.544Z,100.00
2022-10-19T07:24:48.090Z,100.00
2022-10-19T07:27:40.841Z,100.00
2022-10-19T07:30:34.515Z,100.00
2022-10-19T07:33:21.092Z,100.00
2022-10-19T07:36:11.252Z,100.00
2022-10-19T07:38:58.282Z,100.00
2022-10-19T07:41:48.632Z,100.00
2022-10-19T07:44:36.435Z,100.00
2022-10-19T07:47:24.134Z,100.00
2022-10-19T07:50:12.756Z,100.00
2022-10-19T07:52:59.462Z,100.00
2022-10-19T07:55:46.575Z,100.00
2022-10-19T07:58:36.422Z,100.00
2022-10-19T08:01:28.788Z,100.00
2022-10-19T08:07:26.661Z,99.30
2022-10-19T08:10:15.515Z,98.59
2022-10-19T08:13:02.013Z,95.49
2022-10-19T08:15:50.827Z,96.17
2022-10-19T08:18:37.103Z,93.54
2022-10-19T08:21:26.375Z,93.71
2022-10-19T08:24:20.330Z,92.46
2022-10-19T08:27:12.046Z,91.99
2022-10-19T08:30:03.511Z,92.60
2022-10-19T08:32:50.431Z,90.31
2022-10-19T08:35:37.035Z,87.64
2022-10-19T08:38:23.943Z,89.28
2022-10-19T08:41:19.180Z,86.95
2022-10-19T08:44:34.156Z,86.75
2022-10-19T08:47:35.565Z,87.02
2022-10-19T08:50:31.056Z,87.00
2022-10-19T08:53:28.590Z,83.37
2022-10-19T08:56:50.342Z,81.67
2022-10-19T09:00:00.250Z,80.02
2022-10-19T09:03:02.416Z,78.13
2022-10-19T09:05:55.054Z,79.77
2022-10-19T09:08:42.362Z,76.65
2022-10-19T09:11:36.907Z,77.78
2022-10-19T09:14:39.102Z,76.33
2022-10-19T09:17:32.997Z,74.29
2022-10-19T09:20:23.620Z,73.58
2022-10-19T09:23:22.778Z,71.47
2022-10-19T09:26:19.134Z,70.36
2022-10-19T09:29:29.483Z,71.20
2022-10-19T09:32:34.830Z,66.86
2022-10-19T09:35:32.794Z,66.06
2022-10-19T09:38:25.480Z,70.15
2022-10-19T09:41:17.689Z,67.27
2022-10-19T09:44:05.706Z,68.71
2022-10-19T09:47:02.509Z,65.70
2022-10-19T09:49:50.638Z,66.94
2022-10-19T09:52:39.570Z,68.67
2022-10-19T09:55:32.730Z,69.25
2022-10-19T09:58:32.117Z,71.54
2022-10-19T10:01:41.941Z,69.43
2022-10-19T10:04:31.601Z,67.22
2022-10-19T10:07:18.637Z,64.71
2022-10-19T10:10:20.745Z,62.24
2022-10-19T10:13:17.651Z,62.13
2022-10-19T10:16:08.786Z,59.34
2022-10-19T10:18:58.652Z,57.66
2022-10-19T10:21:48.090Z,56.03
2022-10-19T10:24:36.502Z,55.09
2022-10-19T10:27:33.932Z,51.86
2022-10-19T10:30:21.960Z,56.90
2022-10-19T10:33:26.972Z,56.11
2022-10-19T10:36:30.541Z,55.38
2022-10-19T10:39:17.719Z,56.12
2022-10-19T10:42:11.712Z,59.03
2022-10-19T10:45:01.762Z,58.35
2022-10-19T10:47:52.780Z,57.99
2022-10-19T10:50:41.717Z,55.43
2022-10-19T10:53:35.896Z,56.46
2022-10-19T10:56:28.360Z,57.32
2022-10-19T10:59:21.759Z,54.68
2022-10-19T11:02:42.695Z,54.40
2022-10-19T11:05:32.833Z,47.53
2022-10-19T11:09:05.241Z,48.35
2022-10-19T11:11:57.610Z,49.21
2022-10-19T11:14:48.695Z,51.27
2022-10-19T11:17:39.785Z,51.95
2022-10-19T11:20:34.789Z,52.15
2022-10-19T11:23:46.622Z,50.99
2022-10-19T11:26:43.636Z,50.76
2022-10-19T11:30:09.019Z,52.94
2022-10-19T11:33:08.103Z,54.59
2022-10-19T11:35:59.006Z,55.03
2022-10-19T11:39:10.914Z,55.49
2022-10-19T11:42:34.854Z,57.48
2022-10-19T11:45:50.574Z,58.62
2022-10-19T11:48:43.744Z,56.71
2022-10-19T11:54:40.994Z,56.23
2022-10-19T11:57:34.696Z,57.22
2022-10-19T12:00:38.269Z,55.72
2022-10-19T12:03:28.856Z,55.32
2022-10-19T12:06:22.781Z,55.67
2022-10-19T12:09:19.924Z,57.79
2022-10-19T12:12:10.236Z,57.01
2022-10-19T12:17:54.846Z,56.32
2022-10-19T12:20:46.557Z,55.97
2022-10-19T12:23:34.861Z,56.69
2022-10-19T12:26:23.582Z,56.07
2022-10-19T12:29:18.166Z,56.89
2022-10-19T12:35:08.598Z,60.08
2022-10-19T12:38:06.536Z,60.39
2022-10-19T12:40:55.942Z,58.70
2022-10-19T12:43:52.687Z,60.25
2022-10-19T12:46:41.797Z,55.74
2022-10-19T12:52:41.636Z,52.12
2022-10-19T12:55:35.004Z,50.09
2022-10-19T12:58:27.775Z,50.94
2022-10-19T13:01:28.085Z,50.20
2022-10-19T13:04:15.658Z,49.04
2022-10-19T13:07:04.999Z,49.69
2022-10-19T13:10:04.906Z,49.92
2022-10-19T13:12:54.832Z,47.19
2022-10-19T13:15:43.400Z,46.89
2022-10-19T13:18:51.509Z,50.05
2022-10-19T13:21:49.896Z,51.57
2022-10-19T13:24:38.619Z,49.68
2022-10-19T13:27:26.898Z,46.06
2022-10-19T13:30:32.741Z,44.79
2022-10-19T13:33:39.633Z,44.24
2022-10-19T13:36:32.559Z,47.37
2022-10-19T13:39:26.039Z,48.37
2022-10-19T13:42:27.035Z,48.01
2022-10-19T13:45:28.572Z,46.27
2022-10-19T13:48:23.788Z,46.14
2022-10-19T13:51:21.571Z,45.63
2022-10-19T13:54:22.619Z,43.71
2022-10-19T13:57:27.996Z,47.21
2022-10-19T14:03:23.614Z,47.47
2022-10-19T14:06:17.523Z,52.48
2022-10-19T14:09:25.489Z,50.99
2022-10-19T14:12:23.596Z,49.96
2022-10-19T14:15:29.540Z,49.43
2022-10-19T14:18:27.877Z,45.79
2022-10-19T14:21:38.618Z,45.55
2022-10-19T14:24:34.878Z,47.17
2022-10-19T14:27:24.796Z,46.08
2022-10-19T14:30:24.319Z,46.26
2022-10-19T14:36:17.539Z,45.18
2022-10-19T14:39:20.934Z,46.99
2022-10-19T14:42:09.684Z,47.15
2022-10-19T14:44:58.637Z,49.51
2022-10-19T14:48:00.629Z,49.78
2022-10-19T14:50:48.016Z,49.96
2022-10-19T14:53:45.874Z,50.42
2022-10-19T14:56:35.374Z,50.24
2022-10-19T14:59:26.689Z,48.26
2022-10-19T15:05:19.048Z,49.70
2022-10-19T15:08:07.908Z,49.83
2022-10-19T15:11:00.628Z,51.40
2022-10-19T15:13:52.014Z,52.12
2022-10-19T15:16:46.793Z,52.11
2022-10-19T15:19:34.572Z,54.23
2022-10-19T15:22:27.639Z,54.71
2022-10-19T15:25:28.742Z,54.73
2022-10-19T15:28:40.579Z,55.28
2022-10-19T15:31:29.006Z,55.91
2022-10-19T15:34:37.670Z,55.85
2022-10-19T15:37:24.474Z,57.48
2022-10-19T15:40:27.661Z,59.49
2022-10-19T15:43:33.538Z,59.42
2022-10-19T15:49:43.622Z,59.91
2022-10-19T15:52:40.893Z,60.58
2022-10-19T15:55:29.551Z,60.33
2022-10-19T15:58:27.273Z,60.79
2022-10-19T16:01:16.123Z,61.21
2022-10-19T16:04:06.045Z,62.26
2022-10-19T16:06:57.033Z,60.95
2022-10-19T16:09:45.034Z,60.32
2022-10-19T16:12:32.776Z,60.44
2022-10-19T16:15:28.602Z,60.38
2022-10-19T16:21:24.555Z,61.56
2022-10-19T16:24:22.022Z,60.27
2022-10-19T16:27:14.470Z,60.71
2022-10-19T16:30:03.721Z,61.51
2022-10-19T16:33:05.848Z,61.14
2022-10-19T16:35:53.568Z,60.90
2022-10-19T16:38:50.633Z,60.50
2022-10-19T16:41:44.591Z,62.10
2022-10-19T16:44:38.767Z,61.07
2022-10-19T16:47:27.202Z,62.75
2022-10-19T16:50:26.740Z,62.41
2022-10-19T16:53:14.426Z,61.23
2022-10-19T16:59:14.993Z,61.80
2022-10-19T17:02:03.858Z,61.82
2022-10-19T17:04:54.160Z,62.23
2022-10-19T17:07:47.989Z,62.11
2022-10-19T17:10:39.567Z,62.07
2022-10-19T17:13:45.496Z,62.26
2022-10-19T17:16:36.527Z,63.00
2022-10-19T17:19:23.399Z,65.20
2022-10-19T17:22:18.939Z,66.21
2022-10-19T17:25:06.121Z,66.15
2022-10-19T17:27:52.818Z,66.21
2022-10-19T17:30:53.945Z,64.42
2022-10-19T17:33:55.989Z,66.14
2022-10-19T17:36:48.924Z,68.12
2022-10-19T17:39:45.527Z,69.29
2022-10-19T17:42:39.531Z,67.72
2022-10-19T17:45:39.604Z,69.69
2022-10-19T17:48:30.563Z,70.29
2022-10-19T17:51:24.561Z,69.60
2022-10-19T17:54:14.526Z,68.66
2022-10-19T17:57:06.795Z,68.63
2022-10-19T17:59:56.811Z,70.33
2022-10-19T18:02:54.737Z,68.92
2022-10-19T18:05:55.935Z,70.28
2022-10-19T18:08:57.674Z,70.67
2022-10-19T18:14:53.535Z,69.63
2022-10-19T18:17:48.022Z,72.37
2022-10-19T18:20:41.776Z,72.62
2022-10-19T18:23:29.779Z,71.58
2022-10-19T18:29:16.897Z,71.69
2022-10-19T18:32:13.003Z,71.39
2022-10-19T18:35:03.545Z,70.80
2022-10-19T18:38:02.587Z,70.84
2022-10-19T18:40:56.578Z,72.04
2022-10-19T18:43:52.535Z,72.82
2022-10-19T18:46:43.414Z,73.47
2022-10-19T18:49:31.250Z,73.83
2022-10-19T18:52:19.594Z,74.35
2022-10-19T18:55:17.557Z,74.01
2022-10-19T18:58:07.112Z,74.25
2022-10-19T19:01:11.574Z,74.36
2022-10-19T19:04:07.561Z,74.56
2022-10-19T19:06:58.954Z,74.14
2022-10-19T19:09:47.763Z,73.86
2022-10-19T19:12:37.888Z,75.48
2022-10-19T19:15:30.614Z,75.33
2022-10-19T19:21:05.691Z,77.69
2022-10-19T19:24:06.595Z,77.68
2022-10-19T19:27:06.758Z,78.33
2022-10-19T19:30:05.570Z,78.39
2022-10-19T19:32:53.839Z,81.10
2022-10-19T19:35:44.001Z,82.04
2022-10-19T19:38:34.849Z,76.55
2022-10-19T19:41:24.105Z,75.07
2022-10-19T19:44:15.717Z,76.77
2022-10-19T19:47:07.701Z,80.06
2022-10-19T19:50:06.781Z,76.20
2022-10-19T19:53:04.800Z,77.96
2022-10-19T19:55:51.929Z,76.08
2022-10-19T19:58:47.302Z,76.87
2022-10-19T20:01:39.590Z,78.63
2022-10-19T20:04:27.565Z,76.96
2022-10-19T20:07:15.964Z,77.88
2022-10-19T20:10:02.546Z,83.90
2022-10-19T20:12:51.696Z,85.39
2022-10-19T20:18:34.980Z,87.11
2022-10-19T20:21:27.578Z,87.41
2022-10-19T20:24:21.873Z,85.00
2022-10-19T20:27:13.551Z,85.02
2022-10-19T20:30:04.588Z,84.74
2022-10-19T20:32:53.553Z,85.07
2022-10-19T20:35:40.506Z,82.56
2022-10-19T20:38:31.793Z,86.73
2022-10-19T20:41:20.662Z,86.54
2022-10-19T20:44:10.129Z,86.74
2022-10-19T20:46:57.091Z,86.26
2022-10-19T20:49:47.539Z,86.83
2022-10-19T20:52:35.809Z,87.15
2022-10-19T20:55:22.803Z,87.13
2022-10-19T20:58:11.150Z,86.26
2022-10-19T21:01:02.536Z,85.21
2022-10-19T21:03:58.364Z,82.51
2022-10-19T21:06:45.832Z,80.57
2022-10-19T21:09:32.621Z,76.37
2022-10-19T21:12:20.569Z,75.51
2022-10-19T21:15:06.704Z,76.40
2022-10-19T21:17:53.361Z,77.67
2022-10-19T21:20:41.039Z,76.17
2022-10-19T21:23:28.787Z,82.53
2022-10-19T21:26:18.001Z,78.50
2022-10-19T21:29:11.526Z,80.92
2022-10-19T21:31:58.402Z,83.14
2022-10-19T21:34:45.970Z,81.91
2022-10-19T21:37:31.764Z,82.19
2022-10-19T21:40:17.676Z,83.99
2022-10-19T21:43:03.673Z,83.94
2022-10-19T21:45:49.931Z,85.74
2022-10-19T21:51:40.457Z,87.97
2022-10-19T21:54:27.265Z,87.58
2022-10-19T21:57:13.968Z,88.01
2022-10-19T22:00:00.001Z,86.08
2022-10-19T22:02:48.350Z,87.13
2022-10-19T22:05:34.426Z,89.58
2022-10-19T22:08:20.692Z,87.15
2022-10-19T22:11:11.390Z,85.48
2022-10-19T22:13:57.998Z,82.06
2022-10-19T22:16:45.377Z,78.63
2022-10-19T22:19:31.661Z,77.43
2022-10-19T22:22:18.817Z,75.41
2022-10-19T22:25:05.337Z,72.91
2022-10-19T22:27:53.961Z,73.43
2022-10-19T22:30:45.057Z,78.32
2022-10-19T22:33:31.160Z,79.07
2022-10-19T22:36:17.495Z,77.71
2022-10-19T22:39:03.963Z,76.18
2022-10-19T22:41:49.881Z,74.16
2022-10-19T22:44:36.587Z,74.57
2022-10-19T22:47:22.849Z,75.06
2022-10-19T22:50:11.784Z,74.31
2022-10-19T22:52:57.914Z,75.67
2022-10-19T22:55:44.433Z,75.81
2022-10-19T22:58:30.301Z,74.68
2022-10-19T23:01:16.893Z,73.25
2022-10-19T23:04:03.017Z,72.67
2022-10-19T23:06:50.734Z,71.93
2022-10-19T23:09:36.710Z,73.86
2022-10-19T23:12:26.751Z,75.39
2022-10-19T23:15:13.664Z,78.95
2022-10-19T23:18:00.564Z,78.17
2022-10-19T23:20:53.167Z,81.86
2022-10-19T23:23:40.561Z,83.22
2022-10-19T23:26:26.893Z,82.53
2022-10-19T23:29:14.884Z,79.99
2022-10-19T23:32:01.756Z,80.89
2022-10-19T23:34:48.553Z,85.72
2022-10-19T23:37:35.283Z,83.88
2022-10-19T23:40:21.579Z,80.99
2022-10-19T23:43:07.736Z,81.28
2022-10-19T23:45:54.104Z,81.32
2022-10-19T23:48:40.551Z,79.24
2022-10-19T23:51:27.074Z,76.77
2022-10-19T23:54:13.478Z,81.02
2022-10-19T23:57:00.418Z,82.46
2022-10-19T23:59:46.541Z,77.93
